New Hope, Missouri
Current Conditions -  °F | °C
As of 1:54 AM on Thursday 23 Oct 2014 (Local Time) from KSET Reporting Station
Clear Clear  
Wind Chill: 39°   Ceiling: Unl
Heat Index: 42°   Visibility: 10mi
Dew Point: 39°   Wind: 5mph
Humidity: 89%   Direction: 80°E
Pressure: 30.22"   Gusts: NA
Location:  39.1646°N, 90.8436°W
Report Text: KSET 230654Z AUTO 08004KT 10SM CLR 06/04 A3022 RMK AO2 SLP231 T00560039 $
Loading
Personal Weather Stations






























Interactive Weather Map
Tropical Storm Tracking
New forecast layout! Learn more

10-Day Weather Forecast

Advertisements
Track Severe Weather on mobile